Time;durP1;ratioP1;P1;durP2;ratioP2;P2;SDS_P1;SDS_P2;PMS_P1;PMS_P2;Temp;Humidity;BMP_temperature;BMP_pressure;BME280_temperature;BME280_humidity;BME280_pressure;Samples;Min_cycle;Max_cycle;Signal;HPM_P1;HPM_P2
2023/08/18 00:00:11;;;;;;;2.03;1.70;;;22.10;65.80;;;;;;4898501;29;20037;-80
2023/08/18 00:02:38;;;;;;;2.40;2.00;;;22.10;65.80;;;;;;4898764;29;20234;-79
2023/08/18 00:05:05;;;;;;;2.60;2.33;;;22.10;65.90;;;;;;4882989;29;20084;-80
2023/08/18 00:07:31;;;;;;;2.17;1.90;;;22.10;65.90;;;;;;4898243;29;20040;-79
2023/08/18 00:09:56;;;;;;;2.08;1.88;;;22.10;65.90;;;;;;4882481;29;20033;-80
2023/08/18 00:12:22;;;;;;;2.13;1.92;;;22.00;65.80;;;;;;4882681;29;20052;-79
2023/08/18 00:14:51;;;;;;;2.80;1.98;;;22.00;65.90;;;;;;4898162;29;20509;-80
2023/08/18 00:17:17;;;;;;;2.10;1.90;;;22.00;66.00;;;;;;4899243;29;20436;-80
2023/08/18 00:19:43;;;;;;;1.70;1.60;;;22.00;66.00;;;;;;4898452;29;20064;-85
2023/08/18 00:22:09;;;;;;;2.72;2.05;;;22.00;66.00;;;;;;4897823;29;20040;-79
2023/08/18 00:24:35;;;;;;;2.00;1.80;;;22.00;66.00;;;;;;4898172;29;20041;-80
2023/08/18 00:27:01;;;;;;;1.95;1.60;;;22.00;66.00;;;;;;4897983;29;20033;-79
2023/08/18 00:29:27;;;;;;;2.35;2.00;;;22.00;65.90;;;;;;4913652;29;20041;-79
2023/08/18 00:31:53;;;;;;;2.10;1.75;;;21.90;65.90;;;;;;4913443;29;20092;-82
2023/08/18 00:34:18;;;;;;;2.35;2.00;;;22.00;65.90;;;;;;4897806;29;20038;-79
2023/08/18 00:36:44;;;;;;;2.42;1.88;;;21.90;65.90;;;;;;4882075;29;20029;-82
2023/08/18 00:39:10;;;;;;;2.28;1.98;;;21.90;65.90;;;;;;4882220;29;20124;-82
2023/08/18 00:41:36;;;;;;;2.80;1.92;;;21.90;65.90;;;;;;4897744;29;20397;-80
2023/08/18 00:44:02;;;;;;;2.30;1.85;;;21.90;66.00;;;;;;4898977;29;20407;-79
2023/08/18 00:46:30;;;;;;;2.80;2.10;;;21.90;65.90;;;;;;4897677;29;20051;-81
2023/08/18 00:49:00;;;;;;;1.92;1.73;;;21.90;66.00;;;;;;4882528;29;20039;-79
2023/08/18 00:51:26;;;;;;;2.45;1.95;;;21.90;66.00;;;;;;4897919;29;20096;-79
2023/08/18 00:53:54;;;;;;;2.38;1.83;;;21.80;66.00;;;;;;4897683;29;20052;-81
2023/08/18 00:56:20;;;;;;;3.53;2.00;;;21.80;66.00;;;;;;4882172;29;20055;-79
2023/08/18 00:58:46;;;;;;;1.70;1.60;;;21.80;66.00;;;;;;4897630;29;20033;-79
2023/08/18 01:01:13;;;;;;;1.75;1.48;;;21.80;66.00;;;;;;4913396;29;20036;-79
2023/08/18 01:03:39;;;;;;;1.65;1.55;;;21.80;66.00;;;;;;4913072;29;20060;-79
2023/08/18 01:06:05;;;;;;;2.20;1.92;;;21.80;66.00;;;;;;4898304;29;20171;-81
2023/08/18 01:08:31;;;;;;;2.05;1.77;;;21.70;65.90;;;;;;4913620;29;20525;-79
2023/08/18 01:11:17;;;;;;;1.88;1.60;;;21.80;66.00;;;;;;4897788;29;20132;-86
2023/08/18 01:14:09;;;;;;;1.65;1.55;;;21.80;66.10;;;;;;4900878;29;20048;-79
2023/08/18 01:16:37;;;;;;;1.50;1.40;;;21.70;66.10;;;;;;4899220;29;20076;-79
2023/08/18 01:19:05;;;;;;;2.20;1.70;;;21.70;66.10;;;;;;4913758;29;20040;-80
2023/08/18 01:21:31;;;;;;;2.08;1.75;;;21.70;66.00;;;;;;4897581;29;20035;-79
2023/08/18 01:24:03;;;;;;;2.50;2.00;;;21.70;66.10;;;;;;4897270;29;20119;-79
2023/08/18 01:26:29;;;;;;;2.20;1.67;;;21.70;66.10;;;;;;4897885;29;20359;-79
2023/08/18 01:28:54;;;;;;;1.90;1.63;;;21.70;66.10;;;;;;4885704;29;20039;-79
2023/08/18 01:31:27;;;;;;;1.98;1.73;;;21.70;66.10;;;;;;4885285;29;20028;-80
2023/08/18 01:34:00;;;;;;;1.75;1.63;;;21.60;66.10;;;;;;4902866;29;20435;-79
2023/08/18 01:36:32;;;;;;;2.05;1.63;;;21.60;66.10;;;;;;4901397;29;20426;-80
2023/08/18 01:39:00;;;;;;;1.77;1.63;;;21.60;66.10;;;;;;4916573;29;20556;-79
2023/08/18 01:41:27;;;;;;;1.65;1.55;;;21.60;66.10;;;;;;4885746;29;20039;-79
2023/08/18 01:43:52;;;;;;;1.88;1.52;;;21.60;66.10;;;;;;4900832;29;20041;-79
2023/08/18 01:46:18;;;;;;;2.08;1.65;;;21.60;66.10;;;;;;4916289;29;20055;-79
2023/08/18 01:48:44;;;;;;;1.95;1.65;;;21.60;66.10;;;;;;4901176;29;20036;-80
2023/08/18 01:51:10;;;;;;;1.70;1.55;;;21.60;66.10;;;;;;4901517;29;20209;-79
2023/08/18 01:53:36;;;;;;;1.98;1.65;;;21.50;66.10;;;;;;4900370;29;20096;-79
2023/08/18 01:56:03;;;;;;;2.40;1.98;;;21.50;66.10;;;;;;4900531;29;20035;-81
2023/08/18 01:58:29;;;;;;;2.15;1.90;;;21.50;66.10;;;;;;4900605;29;20025;-80
2023/08/18 02:00:55;;;;;;;2.35;2.00;;;21.50;66.10;;;;;;4900810;29;20037;-79
2023/08/18 02:03:22;;;;;;;1.90;1.70;;;21.50;66.20;;;;;;4901231;29;20048;-80
2023/08/18 02:05:48;;;;;;;2.38;1.73;;;21.50;66.20;;;;;;4901017;29;20037;-81
2023/08/18 02:08:14;;;;;;;2.15;1.83;;;21.50;66.20;;;;;;4901229;29;20041;-83
2023/08/18 02:10:39;;;;;;;2.00;1.75;;;21.50;66.30;;;;;;4900513;29;20032;-79
2023/08/18 02:13:05;;;;;;;2.05;1.65;;;21.50;66.20;;;;;;4900356;29;20501;-79
2023/08/18 02:15:31;;;;;;;2.20;1.70;;;21.50;66.20;;;;;;4885605;29;20029;-78
2023/08/18 02:17:57;;;;;;;2.10;1.80;;;21.50;66.20;;;;;;4901334;29;20490;-80
2023/08/18 02:20:23;;;;;;;1.85;1.60;;;21.40;66.10;;;;;;4884621;29;20033;-82
2023/08/18 02:22:49;;;;;;;1.95;1.55;;;21.50;66.20;;;;;;4901451;29;20033;-78
2023/08/18 02:25:15;;;;;;;2.85;2.03;;;21.40;66.10;;;;;;4899934;29;20511;-78
2023/08/18 02:27:41;;;;;;;2.00;1.80;;;21.40;66.10;;;;;;4900399;29;20474;-77
2023/08/18 02:30:07;;;;;;;2.42;1.85;;;21.40;66.20;;;;;;4885088;29;20039;-77
2023/08/18 02:32:33;;;;;;;2.28;1.80;;;21.40;66.20;;;;;;4884978;29;20049;-78
2023/08/18 02:34:59;;;;;;;2.05;1.75;;;21.40;66.20;;;;;;4900191;29;20041;-77
2023/08/18 02:37:25;;;;;;;2.13;1.85;;;21.40;66.20;;;;;;4899972;29;20127;-78
2023/08/18 02:39:50;;;;;;;2.03;1.80;;;21.40;66.20;;;;;;4899264;29;20028;-81
2023/08/18 02:42:16;;;;;;;3.30;2.05;;;21.40;66.20;;;;;;4899903;29;20037;-78
2023/08/18 02:44:42;;;;;;;2.20;1.88;;;21.40;66.30;;;;;;4899741;29;20051;-78
2023/08/18 02:47:09;;;;;;;2.85;1.90;;;21.30;66.20;;;;;;4915814;29;20048;-79
2023/08/18 02:49:35;;;;;;;3.10;2.10;;;21.40;66.30;;;;;;4899495;29;20033;-78
2023/08/18 02:52:01;;;;;;;1.77;1.55;;;21.30;66.30;;;;;;4915301;29;20039;-79
2023/08/18 02:54:27;;;;;;;2.40;1.92;;;21.30;66.30;;;;;;4899737;29;20029;-78
2023/08/18 02:56:54;;;;;;;2.35;1.83;;;21.30;66.30;;;;;;4899714;29;20059;-78
2023/08/18 02:59:20;;;;;;;1.80;1.63;;;21.30;66.30;;;;;;4899586;29;20036;-78
2023/08/18 03:01:45;;;;;;;1.80;1.67;;;21.30;66.30;;;;;;4899627;29;20080;-78
2023/08/18 03:04:14;;;;;;;2.05;1.75;;;21.30;66.30;;;;;;4899489;29;20061;-78
2023/08/18 03:06:40;;;;;;;1.73;1.60;;;21.30;66.30;;;;;;4900524;29;20029;-79
2023/08/18 03:09:06;;;;;;;3.20;1.80;;;21.20;66.30;;;;;;4899434;29;20040;-79
2023/08/18 03:11:32;;;;;;;2.35;1.70;;;21.20;66.30;;;;;;4899368;29;20390;-78
2023/08/18 03:13:58;;;;;;;2.20;1.77;;;21.20;66.30;;;;;;4868498;29;20045;-79
2023/08/18 03:16:24;;;;;;;2.97;1.83;;;21.20;66.40;;;;;;4868357;29;20176;-79
2023/08/18 03:18:49;;;;;;;2.13;1.70;;;21.20;66.40;;;;;;4900636;29;20040;-80
2023/08/18 03:21:15;;;;;;;2.42;1.98;;;21.20;66.40;;;;;;4884836;29;20029;-78
2023/08/18 03:23:42;;;;;;;2.47;2.00;;;21.20;66.40;;;;;;4887305;29;20043;-78
2023/08/18 03:26:07;;;;;;;2.60;2.00;;;21.20;66.40;;;;;;4887929;29;20041;-78
2023/08/18 03:28:37;;;;;;;2.33;1.77;;;21.20;66.40;;;;;;4899490;29;20032;-78
2023/08/18 03:31:05;;;;;;;3.03;2.50;;;21.20;66.50;;;;;;4915128;29;20088;-79
2023/08/18 03:33:33;;;;;;;2.25;1.90;;;21.20;66.50;;;;;;4899301;29;20068;-79
2023/08/18 03:36:00;;;;;;;3.00;2.08;;;21.20;66.50;;;;;;4899559;29;20112;-78
2023/08/18 03:38:26;;;;;;;2.65;2.20;;;21.20;66.50;;;;;;4883162;29;20084;-78
2023/08/18 03:41:05;;;;;;;2.65;2.15;;;21.20;66.50;;;;;;4899256;29;20104;-78
2023/08/18 03:43:32;;;;;;;2.55;2.10;;;21.10;66.50;;;;;;4900752;29;20041;-78
2023/08/18 03:46:01;;;;;;;2.83;2.38;;;21.10;66.50;;;;;;4898838;29;20143;-83
2023/08/18 03:48:27;;;;;;;2.97;2.25;;;21.10;66.50;;;;;;4899430;29;20427;-82
2023/08/18 03:50:54;;;;;;;3.40;2.42;;;21.10;66.50;;;;;;4898812;29;20037;-78
2023/08/18 03:53:22;;;;;;;2.85;2.20;;;21.10;66.60;;;;;;4898826;29;20118;-78
2023/08/18 03:55:52;;;;;;;2.83;2.20;;;21.10;66.60;;;;;;4898590;29;20538;-80
2023/08/18 03:58:18;;;;;;;3.42;2.47;;;21.10;66.60;;;;;;4898293;29;20135;-79
2023/08/18 04:00:45;;;;;;;3.63;2.63;;;21.10;66.70;;;;;;4898645;29;20470;-79
2023/08/18 04:03:11;;;;;;;2.83;2.35;;;21.10;66.70;;;;;;4899262;29;20039;-78
2023/08/18 04:05:43;;;;;;;4.00;2.83;;;21.00;66.60;;;;;;4898397;29;20498;-78
2023/08/18 04:08:09;;;;;;;2.90;2.42;;;21.10;66.70;;;;;;4898537;29;20066;-78
2023/08/18 04:10:35;;;;;;;3.03;2.47;;;21.00;66.60;;;;;;4898389;29;20033;-77
2023/08/18 04:13:01;;;;;;;4.82;2.75;;;21.00;66.70;;;;;;4882825;29;20135;-79
2023/08/18 04:15:32;;;;;;;3.63;2.60;;;21.00;66.70;;;;;;4898449;29;20033;-78
2023/08/18 04:17:57;;;;;;;3.80;2.80;;;21.00;66.70;;;;;;4898158;29;20157;-78
2023/08/18 04:20:23;;;;;;;4.55;3.00;;;21.00;66.80;;;;;;4913799;29;20390;-77
2023/08/18 04:22:49;;;;;;;3.50;2.75;;;21.00;66.70;;;;;;4882842;29;20077;-78
2023/08/18 04:25:15;;;;;;;4.03;2.67;;;21.00;66.80;;;;;;4882591;29;20652;-78
2023/08/18 04:27:41;;;;;;;4.25;3.13;;;21.00;66.80;;;;;;4897938;29;20494;-78
2023/08/18 04:30:08;;;;;;;3.83;2.95;;;21.00;66.80;;;;;;4898560;29;20175;-79
2023/08/18 04:32:34;;;;;;;4.30;3.10;;;21.00;66.90;;;;;;4882335;29;20042;-78
2023/08/18 04:35:01;;;;;;;4.80;3.70;;;21.00;66.90;;;;;;4897828;29;20119;-78
2023/08/18 04:37:28;;;;;;;4.18;3.20;;;21.00;66.90;;;;;;4897895;29;20040;-78
2023/08/18 04:39:54;;;;;;;4.78;3.40;;;20.90;66.80;;;;;;4882682;29;20043;-79
2023/08/18 04:42:20;;;;;;;3.60;2.97;;;21.00;66.90;;;;;;4882040;29;20043;-78
2023/08/18 04:44:46;;;;;;;4.45;3.20;;;21.00;67.00;;;;;;4897643;29;20053;-78
2023/08/18 04:47:12;;;;;;;5.35;3.50;;;21.00;66.90;;;;;;4898334;29;20036;-78
2023/08/18 04:49:39;;;;;;;4.47;3.60;;;20.90;66.90;;;;;;4882176;29;20037;-79
2023/08/18 04:52:07;;;;;;;4.78;3.70;;;20.90;66.90;;;;;;4897476;29;20135;-79
2023/08/18 04:54:33;;;;;;;4.53;3.60;;;21.00;67.00;;;;;;4913258;29;20095;-78
2023/08/18 04:56:59;;;;;;;4.13;3.33;;;20.90;67.00;;;;;;4898274;29;20037;-79
2023/08/18 04:59:26;;;;;;;4.35;3.25;;;20.90;67.00;;;;;;4897749;29;20077;-79
2023/08/18 05:01:56;;;;;;;3.92;3.08;;;20.90;67.00;;;;;;4883418;29;20060;-78
2023/08/18 05:04:22;;;;;;;4.85;3.65;;;20.90;67.00;;;;;;4913377;29;20456;-78
2023/08/18 05:06:48;;;;;;;5.90;4.00;;;20.90;67.10;;;;;;4897437;29;20513;-81
2023/08/18 05:09:13;;;;;;;5.13;4.07;;;20.90;67.10;;;;;;4897082;29;20037;-78
2023/08/18 05:11:39;;;;;;;5.35;3.75;;;20.90;67.10;;;;;;4913139;29;20088;-79
2023/08/18 05:14:05;;;;;;;4.97;3.83;;;20.90;67.10;;;;;;4898077;29;20530;-78
2023/08/18 05:16:31;;;;;;;4.75;3.72;;;20.80;67.10;;;;;;4898343;29;20036;-78
2023/08/18 05:18:59;;;;;;;4.90;4.05;;;20.80;67.10;;;;;;4913070;29;20037;-78
2023/08/18 05:21:24;;;;;;;4.95;3.88;;;20.90;67.20;;;;;;4897249;29;20033;-78
2023/08/18 05:23:50;;;;;;;4.53;3.72;;;20.80;67.10;;;;;;4912725;29;20496;-78
2023/08/18 05:26:16;;;;;;;5.18;3.88;;;20.80;67.10;;;;;;4897244;29;20032;-78
2023/08/18 05:28:43;;;;;;;5.72;4.15;;;20.80;67.20;;;;;;4881818;29;20040;-79
2023/08/18 05:31:10;;;;;;;4.85;4.05;;;20.80;67.30;;;;;;4881895;29;20025;-79
2023/08/18 05:33:37;;;;;;;5.90;3.70;;;20.80;67.30;;;;;;4897182;29;20049;-78
2023/08/18 05:36:04;;;;;;;5.05;3.80;;;20.80;67.30;;;;;;4913122;29;20033;-78
2023/08/18 05:38:30;;;;;;;6.22;4.03;;;20.80;67.30;;;;;;4897152;29;20391;-78
2023/08/18 05:41:07;;;;;;;5.10;3.95;;;20.80;67.30;;;;;;4881502;29;20051;-78
2023/08/18 05:43:37;;;;;;;4.90;3.85;;;20.80;67.30;;;;;;4882013;29;20378;-78
2023/08/18 05:46:03;;;;;;;5.65;4.43;;;20.80;67.30;;;;;;4896936;29;20080;-78
2023/08/18 05:48:30;;;;;;;5.03;3.88;;;20.80;67.30;;;;;;4882480;29;20438;-78
2023/08/18 05:50:56;;;;;;;5.00;3.75;;;20.80;67.30;;;;;;4897013;29;20044;-78
2023/08/18 05:53:22;;;;;;;6.10;4.35;;;20.80;67.40;;;;;;4897743;29;20048;-78
2023/08/18 05:55:50;;;;;;;5.03;3.78;;;20.80;67.40;;;;;;4913087;29;20060;-79
2023/08/18 05:58:16;;;;;;;5.30;4.13;;;20.80;67.40;;;;;;4896941;29;20040;-78
2023/08/18 06:00:42;;;;;;;4.57;3.78;;;20.80;67.50;;;;;;4896666;29;20096;-79
2023/08/18 06:03:08;;;;;;;5.63;4.03;;;20.70;67.40;;;;;;4896749;29;20482;-79
2023/08/18 06:05:34;;;;;;;5.78;4.13;;;20.70;67.40;;;;;;4913154;29;20032;-78
2023/08/18 06:08:00;;;;;;;5.03;3.92;;;20.80;67.50;;;;;;4897221;29;20032;-80
2023/08/18 06:10:26;;;;;;;5.30;4.47;;;20.80;67.50;;;;;;4896940;29;20120;-81
2023/08/18 06:12:52;;;;;;;5.25;4.22;;;20.80;67.60;;;;;;4881260;29;20128;-82
2023/08/18 06:15:20;;;;;;;5.43;3.65;;;20.80;67.60;;;;;;4900081;29;20397;-78
2023/08/18 06:17:46;;;;;;;5.72;4.40;;;20.70;67.60;;;;;;4901247;29;20100;-79
2023/08/18 06:20:13;;;;;;;5.97;4.32;;;20.70;67.60;;;;;;4900287;29;20442;-80
2023/08/18 06:22:39;;;;;;;5.35;4.30;;;20.80;67.70;;;;;;4899951;29;20037;-79
2023/08/18 06:25:07;;;;;;;6.45;4.40;;;20.80;67.70;;;;;;4900126;29;20037;-80
2023/08/18 06:27:33;;;;;;;6.38;4.43;;;20.80;67.70;;;;;;4916558;29;20029;-78
2023/08/18 06:29:59;;;;;;;6.05;4.20;;;20.80;67.70;;;;;;4884455;29;20033;-79
2023/08/18 06:32:24;;;;;;;5.82;4.63;;;20.80;67.70;;;;;;4915825;29;20461;-78
2023/08/18 06:34:51;;;;;;;5.80;4.47;;;20.80;67.70;;;;;;4899813;29;20044;-78
2023/08/18 06:37:17;;;;;;;6.63;5.05;;;20.80;67.70;;;;;;4915945;29;20501;-78
2023/08/18 06:39:43;;;;;;;6.18;4.60;;;20.80;67.70;;;;;;4884432;29;20421;-79
2023/08/18 06:42:09;;;;;;;6.65;4.68;;;20.80;67.70;;;;;;4900800;29;20033;-79
2023/08/18 06:44:35;;;;;;;6.03;4.57;;;20.80;67.70;;;;;;4899563;29;20035;-80
2023/08/18 06:47:01;;;;;;;7.50;5.18;;;20.80;67.70;;;;;;4899918;29;20120;-78
2023/08/18 06:49:27;;;;;;;6.18;4.93;;;20.80;67.80;;;;;;4899969;29;20127;-78
2023/08/18 06:51:53;;;;;;;6.93;4.88;;;20.90;67.80;;;;;;4899654;29;20124;-79
2023/08/18 06:54:18;;;;;;;7.03;5.03;;;20.90;67.90;;;;;;4900555;29;20045;-82
2023/08/18 06:56:44;;;;;;;7.78;5.25;;;20.90;67.90;;;;;;4900555;29;20107;-78
2023/08/18 06:59:12;;;;;;;7.35;4.88;;;20.90;67.80;;;;;;4900446;29;20033;-78
2023/08/18 07:01:38;;;;;;;7.30;5.78;;;20.90;67.90;;;;;;4900382;29;20502;-78
2023/08/18 07:04:04;;;;;;;5.63;4.57;;;20.90;67.90;;;;;;4899469;29;20083;-79
2023/08/18 07:06:31;;;;;;;6.63;5.38;;;20.90;67.90;;;;;;4900868;29;20037;-80
2023/08/18 07:08:57;;;;;;;6.10;5.03;;;20.90;67.90;;;;;;4899223;29;20100;-79
2023/08/18 07:11:23;;;;;;;6.32;5.10;;;20.90;67.90;;;;;;4899325;29;20032;-78
2023/08/18 07:13:49;;;;;;;6.00;4.90;;;20.90;68.60;;;;;;4884263;29;20124;-80
2023/08/18 07:16:14;;;;;;;7.63;5.28;;;20.90;67.90;;;;;;4899405;29;20107;-82
2023/08/18 07:18:40;;;;;;;6.43;4.97;;;20.90;67.90;;;;;;4899979;29;20378;-81
2023/08/18 07:21:06;;;;;;;6.85;5.00;;;21.00;68.00;;;;;;4899249;29;20064;-80
2023/08/18 07:23:32;;;;;;;6.75;5.15;;;21.00;68.00;;;;;;4914701;29;20088;-79
2023/08/18 07:25:58;;;;;;;6.57;4.63;;;21.00;68.00;;;;;;4899986;29;20073;-78
2023/08/18 07:28:25;;;;;;;7.40;5.28;;;21.00;68.00;;;;;;4884447;29;20112;-78
2023/08/18 07:30:51;;;;;;;6.43;4.90;;;21.00;68.00;;;;;;4898979;29;20028;-79
2023/08/18 07:33:17;;;;;;;5.78;5.03;;;21.00;68.00;;;;;;4915513;29;20126;-82
2023/08/18 07:35:43;;;;;;;6.15;4.93;;;21.00;68.00;;;;;;4898691;29;20168;-79
2023/08/18 07:38:08;;;;;;;7.03;5.32;;;21.10;68.00;;;;;;4868650;29;20064;-82
2023/08/18 07:40:34;;;;;;;6.47;5.07;;;21.10;68.00;;;;;;4899811;29;20032;-79
2023/08/18 07:43:00;;;;;;;6.88;5.38;;;21.10;68.00;;;;;;4899138;29;20078;-79
2023/08/18 07:45:29;;;;;;;6.60;4.93;;;21.10;68.00;;;;;;4899250;29;20083;-78
2023/08/18 07:47:57;;;;;;;5.53;4.75;;;21.10;68.00;;;;;;4887038;29;20522;-78
2023/08/18 07:50:23;;;;;;;6.68;4.50;;;21.10;68.00;;;;;;4902534;29;20032;-79
2023/08/18 07:52:49;;;;;;;6.93;4.93;;;21.20;68.00;;;;;;4898886;29;20065;-78
2023/08/18 07:55:15;;;;;;;6.63;5.03;;;21.20;68.00;;;;;;4914729;29;20569;-79
2023/08/18 07:57:41;;;;;;;6.80;4.55;;;21.20;68.00;;;;;;4882874;29;20120;-79
2023/08/18 08:00:10;;;;;;;6.93;4.72;;;21.20;68.00;;;;;;4883123;29;20043;-78
2023/08/18 08:02:38;;;;;;;6.18;4.93;;;21.30;68.00;;;;;;4899773;29;20565;-80
2023/08/18 08:05:13;;;;;;;6.60;5.05;;;21.30;68.00;;;;;;4898476;29;20127;-80
2023/08/18 08:07:40;;;;;;;6.38;4.65;;;21.30;68.00;;;;;;4883971;29;20075;-78
2023/08/18 08:10:07;;;;;;;6.15;5.05;;;21.30;68.00;;;;;;4898385;29;20028;-78
2023/08/18 08:12:38;;;;;;;7.55;6.35;;;21.40;68.10;;;;;;4899144;29;20083;-80
2023/08/18 08:15:05;;;;;;;8.48;6.85;;;21.40;68.40;;;;;;4897924;29;20028;-80
2023/08/18 08:17:32;;;;;;;9.13;7.22;;;21.50;68.50;;;;;;4899047;29;20028;-78
2023/08/18 08:20:00;;;;;;;10.93;8.25;;;21.40;68.70;;;;;;4897818;29;20029;-79
2023/08/18 08:22:26;;;;;;;9.23;8.23;;;21.50;69.00;;;;;;4898088;29;20032;-78
2023/08/18 08:24:55;;;;;;;9.88;8.07;;;21.50;69.10;;;;;;4897993;29;20147;-77
2023/08/18 08:27:21;;;;;;;10.38;7.95;;;21.50;69.20;;;;;;4883138;29;20044;-78
2023/08/18 08:29:47;;;;;;;10.73;7.40;;;21.50;69.40;;;;;;4898883;29;20061;-78
2023/08/18 08:32:13;;;;;;;9.55;7.55;;;21.60;69.60;;;;;;4899445;29;20458;-78
2023/08/18 08:34:42;;;;;;;9.48;8.00;;;21.60;69.60;;;;;;4914797;29;20498;-79
2023/08/18 08:37:08;;;;;;;9.30;7.88;;;21.60;69.70;;;;;;4897646;29;20454;-79
2023/08/18 08:39:33;;;;;;;9.13;6.95;;;21.70;69.70;;;;;;4914015;29;20036;-83
2023/08/18 08:41:59;;;;;;;8.82;7.15;;;21.70;69.80;;;;;;4914501;29;20474;-79
2023/08/18 08:44:25;;;;;;;8.50;7.10;;;21.70;69.90;;;;;;4897682;29;20033;-79
2023/08/18 08:46:52;;;;;;;7.25;6.15;;;21.70;70.00;;;;;;4897221;29;20087;-78
2023/08/18 08:49:22;;;;;;;9.30;6.38;;;21.70;70.00;;;;;;4898677;29;20071;-78
2023/08/18 08:51:50;;;;;;;6.97;5.70;;;21.70;70.00;;;;;;4897089;29;20482;-79
2023/08/18 08:54:20;;;;;;;8.73;6.30;;;21.80;70.10;;;;;;4898434;29;20036;-79
2023/08/18 08:56:47;;;;;;;7.78;6.28;;;21.80;70.20;;;;;;4897876;29;20039;-77
2023/08/18 08:59:15;;;;;;;8.45;6.68;;;21.90;70.20;;;;;;4897736;29;20020;-82
2023/08/18 09:01:41;;;;;;;6.82;6.07;;;21.90;70.30;;;;;;4897411;29;20095;-81
2023/08/18 09:04:08;;;;;;;6.88;6.18;;;21.90;70.40;;;;;;4897261;29;20037;-77
2023/08/18 09:06:35;;;;;;;7.22;6.43;;;21.90;70.50;;;;;;4897410;29;20092;-80
2023/08/18 09:09:02;;;;;;;7.60;6.68;;;21.90;70.50;;;;;;4897004;29;20029;-79
2023/08/18 09:11:46;;;;;;;6.85;5.80;;;21.90;70.50;;;;;;4898761;29;20028;-79
2023/08/18 09:14:13;;;;;;;7.32;6.35;;;22.00;70.70;;;;;;4897319;29;20047;-81
2023/08/18 09:16:39;;;;;;;7.35;6.20;;;22.00;70.50;;;;;;4896744;29;20469;-79
2023/08/18 09:19:05;;;;;;;6.78;6.03;;;22.00;70.60;;;;;;4896627;29;20059;-79
2023/08/18 09:21:34;;;;;;;8.75;6.88;;;22.00;70.60;;;;;;4896791;29;20118;-79
2023/08/18 09:24:00;;;;;;;7.75;6.45;;;22.00;70.60;;;;;;4896571;29;20044;-79
2023/08/18 09:26:28;;;;;;;7.65;6.45;;;22.00;70.70;;;;;;4897016;29;20522;-80
2023/08/18 09:28:54;;;;;;;7.03;6.10;;;22.10;70.80;;;;;;4896626;29;20033;-79
2023/08/18 09:31:20;;;;;;;6.63;5.72;;;22.10;70.70;;;;;;4898221;29;20044;-80
2023/08/18 09:33:46;;;;;;;6.97;6.07;;;22.10;70.70;;;;;;4896835;29;20076;-79
2023/08/18 09:36:13;;;;;;;7.88;6.25;;;22.10;70.60;;;;;;4896624;29;20373;-80
2023/08/18 09:38:42;;;;;;;8.23;5.88;;;22.20;70.80;;;;;;4897415;29;20039;-79
2023/08/18 09:41:09;;;;;;;6.78;5.90;;;22.20;70.80;;;;;;4896578;29;20041;-79
2023/08/18 09:43:37;;;;;;;6.72;6.03;;;22.30;70.70;;;;;;4865839;29;20402;-79
2023/08/18 09:46:04;;;;;;;7.00;5.93;;;22.30;70.60;;;;;;4895849;29;20056;-79
2023/08/18 09:48:35;;;;;;;6.68;5.97;;;22.30;70.60;;;;;;4897938;29;20558;-79
2023/08/18 09:51:05;;;;;;;6.90;5.90;;;22.40;70.70;;;;;;4915848;29;20028;-79
2023/08/18 09:53:32;;;;;;;7.65;5.97;;;22.40;70.60;;;;;;4900035;29;20036;-79
2023/08/18 09:56:05;;;;;;;6.63;5.80;;;22.40;70.50;;;;;;4884610;29;20049;-79
2023/08/18 09:58:58;;;;;;;7.40;6.15;;;22.50;70.60;;;;;;4900225;29;20040;-79
2023/08/18 10:01:27;;;;;;;6.47;5.65;;;22.50;70.60;;;;;;4874240;29;20418;-79
2023/08/18 10:03:53;;;;;;;7.10;5.95;;;22.60;70.40;;;;;;4899947;29;20062;-79
2023/08/18 10:06:19;;;;;;;7.13;6.40;;;22.60;70.40;;;;;;4899818;29;20112;-80
2023/08/18 10:08:46;;;;;;;7.35;6.45;;;22.70;70.40;;;;;;4899688;29;20036;-80
2023/08/18 10:11:13;;;;;;;6.45;5.28;;;22.70;70.40;;;;;;4884549;29;20033;-80
2023/08/18 10:13:40;;;;;;;8.20;6.68;;;22.70;70.20;;;;;;4900021;29;20036;-79
2023/08/18 10:16:06;;;;;;;7.68;6.78;;;22.80;70.20;;;;;;4884857;29;20470;-80
2023/08/18 10:18:32;;;;;;;7.43;6.25;;;22.80;70.20;;;;;;4899363;29;20033;-82
2023/08/18 10:20:59;;;;;;;6.75;6.05;;;22.90;70.30;;;;;;4899844;29;20116;-80
2023/08/18 10:23:28;;;;;;;7.82;6.43;;;22.90;70.30;;;;;;4915656;29;20111;-81
2023/08/18 10:25:54;;;;;;;7.47;6.68;;;23.00;70.30;;;;;;4915022;29;20104;-84
2023/08/18 10:28:22;;;;;;;8.50;7.20;;;23.00;70.20;;;;;;4899589;29;20119;-86
2023/08/18 10:30:57;;;;;;;7.70;6.72;;;23.10;70.10;;;;;;4899640;29;20044;-81
2023/08/18 10:33:35;;;;;;;7.53;6.75;;;23.10;70.00;;;;;;4899679;29;20363;-81
2023/08/18 10:36:03;;;;;;;6.90;6.20;;;23.20;70.10;;;;;;4899242;29;20493;-82
2023/08/18 10:38:29;;;;;;;7.13;6.22;;;23.30;70.00;;;;;;4915137;29;20116;-81
2023/08/18 10:40:55;;;;;;;6.90;6.03;;;23.30;69.90;;;;;;4900453;29;20033;-81
2023/08/18 10:43:26;;;;;;;6.65;5.95;;;23.40;69.90;;;;;;4899406;29;20040;-82
2023/08/18 10:45:59;;;;;;;6.82;6.05;;;23.40;69.90;;;;;;4899708;29;20124;-79
2023/08/18 10:48:29;;;;;;;7.70;6.32;;;23.50;70.00;;;;;;4898909;29;20061;-80
2023/08/18 10:50:55;;;;;;;7.20;6.38;;;23.60;69.80;;;;;;4899431;29;20039;-80
2023/08/18 10:53:21;;;;;;;6.85;6.07;;;23.60;69.70;;;;;;4883955;29;20448;-80
2023/08/18 10:55:46;;;;;;;7.13;5.85;;;23.70;69.70;;;;;;4883136;29;20450;-80
2023/08/18 10:58:14;;;;;;;7.03;6.10;;;23.70;69.60;;;;;;4883805;29;20033;-79
2023/08/18 11:00:41;;;;;;;9.48;7.47;;;23.80;69.60;;;;;;4899178;29;20040;-76
2023/08/18 11:03:09;;;;;;;7.78;6.45;;;23.90;69.50;;;;;;4899862;29;20070;-76
2023/08/18 11:05:35;;;;;;;7.03;6.22;;;24.00;69.50;;;;;;4914406;29;20032;-80
2023/08/18 11:08:01;;;;;;;7.30;6.43;;;24.00;69.50;;;;;;4898909;29;20033;-78
2023/08/18 11:10:28;;;;;;;7.70;6.88;;;24.10;69.40;;;;;;4899134;29;20533;-79
2023/08/18 11:12:56;;;;;;;7.25;6.40;;;24.20;69.40;;;;;;4898442;29;20041;-79
2023/08/18 11:15:23;;;;;;;7.07;6.30;;;24.20;69.30;;;;;;4899563;29;20039;-76
2023/08/18 11:17:50;;;;;;;7.75;6.95;;;24.20;69.30;;;;;;4882612;29;20099;-78
2023/08/18 11:20:16;;;;;;;6.93;6.18;;;24.20;69.30;;;;;;4913877;29;20482;-79
2023/08/18 11:22:48;;;;;;;6.97;6.22;;;24.30;69.50;;;;;;4898860;29;20092;-76
2023/08/18 11:25:16;;;;;;;6.95;6.28;;;24.30;69.50;;;;;;4899496;29;20032;-87
2023/08/18 11:27:44;;;;;;;7.50;6.80;;;24.30;69.50;;;;;;4898558;29;20047;-83
2023/08/18 11:30:14;;;;;;;7.05;6.35;;;24.40;69.50;;;;;;4898512;29;20513;-82
2023/08/18 11:32:41;;;;;;;9.00;6.68;;;24.40;69.50;;;;;;4899385;29;20619;-78
2023/08/18 11:35:09;;;;;;;6.97;6.28;;;24.40;69.40;;;;;;4899103;29;20036;-79
2023/08/18 11:37:41;;;;;;;7.70;6.63;;;24.40;69.40;;;;;;4898664;29;20040;-79
2023/08/18 11:40:14;;;;;;;7.28;6.57;;;24.50;69.40;;;;;;4898931;29;20119;-79
2023/08/18 11:42:50;;;;;;;8.55;6.35;;;24.50;69.30;;;;;;4898915;29;20031;-78
2023/08/18 11:45:19;;;;;;;7.30;6.60;;;24.50;69.30;;;;;;4898892;29;20432;-84
2023/08/18 11:47:55;;;;;;;7.70;6.60;;;24.60;69.30;;;;;;4898029;29;20083;-82
2023/08/18 11:50:29;;;;;;;7.68;6.88;;;24.60;69.40;;;;;;4898855;29;20457;-79
2023/08/18 11:53:01;;;;;;;6.97;6.15;;;24.60;69.50;;;;;;4913459;29;20048;-80
2023/08/18 11:55:33;;;;;;;7.90;6.75;;;24.60;69.50;;;;;;4897982;29;20075;-76
2023/08/18 11:58:08;;;;;;;6.63;5.93;;;24.60;69.50;;;;;;4913668;29;20107;-78
2023/08/18 12:00:39;;;;;;;8.00;6.88;;;24.70;69.50;;;;;;4882973;29;20035;-79
2023/08/18 12:03:07;;;;;;;7.15;6.45;;;24.80;69.60;;;;;;4899006;29;20036;-78
2023/08/18 12:05:37;;;;;;;7.60;6.78;;;24.80;69.50;;;;;;4897705;29;20052;-81
2023/08/18 12:08:08;;;;;;;8.20;7.40;;;24.80;69.60;;;;;;4898536;29;20064;-82
2023/08/18 12:10:34;;;;;;;7.97;7.18;;;24.80;69.50;;;;;;4885336;29;20036;-79
2023/08/18 12:13:00;;;;;;;7.70;6.93;;;24.80;69.50;;;;;;4887059;29;20047;-80
2023/08/18 12:15:26;;;;;;;8.32;7.43;;;24.80;69.50;;;;;;4919235;29;20048;-83
2023/08/18 12:17:53;;;;;;;8.00;7.20;;;24.90;69.60;;;;;;4905344;29;20040;-82
2023/08/18 12:20:20;;;;;;;8.73;6.85;;;24.90;69.70;;;;;;4901255;29;20062;-80
2023/08/18 12:22:51;;;;;;;7.68;6.85;;;24.90;69.70;;;;;;4898768;29;20447;-80
2023/08/18 12:25:17;;;;;;;8.07;6.25;;;25.00;69.70;;;;;;4882214;29;20185;-81
2023/08/18 12:27:47;;;;;;;7.53;6.72;;;25.00;69.60;;;;;;4897977;29;20024;-81
2023/08/18 12:30:15;;;;;;;7.38;6.68;;;25.00;69.70;;;;;;4899664;29;20024;-80
2023/08/18 12:32:45;;;;;;;6.85;6.05;;;25.00;69.60;;;;;;4913331;29;20040;-80
2023/08/18 12:35:10;;;;;;;6.90;6.20;;;25.10;69.70;;;;;;4897167;29;20032;-77
2023/08/18 12:37:37;;;;;;;7.05;5.57;;;25.10;69.60;;;;;;4897274;29;20405;-79
2023/08/18 12:40:05;;;;;;;6.82;6.13;;;25.10;69.60;;;;;;4898552;29;20036;-79
2023/08/18 12:42:32;;;;;;;6.72;6.03;;;25.10;69.70;;;;;;4897536;29;20064;-76
2023/08/18 12:45:01;;;;;;;7.40;6.57;;;25.10;69.70;;;;;;4881879;29;20467;-80